Time;durP1;ratioP1;P1;durP2;ratioP2;P2;SDS_P1;SDS_P2;PMS_P1;PMS_P2;Temp;Humidity;BMP_temperature;BMP_pressure;BME280_temperature;BME280_humidity;BME280_pressure;Samples;Min_cycle;Max_cycle;Signal;HPM_P1;HPM_P2
2021/03/16 00:01:21;;;;;;;3.90;3.53;;;3.60;99.90;;;;;;6232980;28;20236;-69
2021/03/16 00:04:26;;;;;;;5.20;3.50;;;3.60;99.90;;;;;;6253611;28;20324;-69
2021/03/16 00:07:47;;;;;;;4.03;2.83;;;3.60;99.90;;;;;;6282768;28;20291;-69
2021/03/16 00:10:50;;;;;;;2.67;2.47;;;3.60;99.90;;;;;;6280908;28;21070;-69
2021/03/16 00:13:51;;;;;;;3.10;2.80;;;3.60;99.90;;;;;;6264375;28;20304;-69
2021/03/16 00:16:53;;;;;;;3.67;3.37;;;3.50;99.90;;;;;;6263610;28;20223;-69
2021/03/16 00:19:55;;;;;;;4.10;3.70;;;3.40;99.90;;;;;;6264196;28;20234;-69
2021/03/16 00:22:57;;;;;;;4.10;3.70;;;3.40;99.90;;;;;;6247766;28;20226;-69
2021/03/16 00:25:59;;;;;;;3.43;3.13;;;3.40;99.90;;;;;;6264143;28;20218;-69
2021/03/16 00:29:02;;;;;;;3.53;3.23;;;3.40;99.90;;;;;;6282378;28;20223;-69
2021/03/16 00:32:04;;;;;;;3.50;3.10;;;3.40;99.90;;;;;;6282054;28;20223;-69
2021/03/16 00:35:06;;;;;;;3.97;3.30;;;3.30;99.90;;;;;;6281139;28;20282;-69
2021/03/16 00:38:08;;;;;;;5.00;4.07;;;3.30;99.90;;;;;;6247761;28;20237;-69
2021/03/16 00:41:10;;;;;;;4.53;4.13;;;3.30;99.90;;;;;;6257841;28;20223;-69
2021/03/16 00:44:12;;;;;;;4.80;4.30;;;3.30;99.90;;;;;;6258026;28;20757;-69
2021/03/16 00:47:14;;;;;;;4.43;4.00;;;3.30;99.90;;;;;;6238709;28;20234;-69
2021/03/16 00:50:16;;;;;;;4.40;4.00;;;3.30;99.90;;;;;;6238425;28;20314;-69
2021/03/16 00:53:18;;;;;;;6.20;4.60;;;3.30;99.90;;;;;;6237958;28;20230;-69
2021/03/16 00:56:24;;;;;;;4.40;4.00;;;3.30;99.90;;;;;;6255633;28;20762;-69
2021/03/16 00:59:26;;;;;;;4.97;4.47;;;3.40;99.90;;;;;;6256638;28;20639;-69
2021/03/16 01:02:27;;;;;;;4.27;3.87;;;3.40;99.90;;;;;;6238353;28;20254;-69
2021/03/16 01:05:29;;;;;;;3.93;3.63;;;3.50;99.90;;;;;;6238137;28;20723;-69
2021/03/16 01:08:31;;;;;;;4.00;3.60;;;3.50;99.90;;;;;;6256075;28;20733;-69
2021/03/16 01:11:33;;;;;;;3.60;3.30;;;3.50;99.90;;;;;;6256454;28;20227;-69
2021/03/16 01:14:35;;;;;;;3.57;3.27;;;3.50;99.90;;;;;;6256540;28;20262;-69
2021/03/16 01:17:37;;;;;;;3.30;2.97;;;3.50;99.90;;;;;;6237968;28;20374;-69
2021/03/16 01:20:40;;;;;;;4.77;3.30;;;3.60;99.90;;;;;;6238456;28;20641;-69
2021/03/16 01:23:43;;;;;;;3.50;3.20;;;3.60;99.90;;;;;;6255228;28;20696;-69
2021/03/16 01:26:44;;;;;;;4.97;3.27;;;3.60;99.90;;;;;;6254749;28;20237;-69
2021/03/16 01:29:46;;;;;;;4.13;3.67;;;3.60;99.90;;;;;;6255551;28;20318;-69
2021/03/16 01:32:48;;;;;;;4.53;3.70;;;3.60;99.90;;;;;;6255825;28;20227;-69
2021/03/16 01:35:50;;;;;;;4.43;3.67;;;3.60;99.90;;;;;;6216533;28;20219;-69
2021/03/16 01:38:52;;;;;;;4.97;3.70;;;3.60;99.90;;;;;;6251590;28;20785;-69
2021/03/16 01:41:54;;;;;;;5.77;4.87;;;3.50;99.90;;;;;;6238216;28;20253;-69
2021/03/16 01:44:55;;;;;;;4.47;4.07;;;3.50;99.90;;;;;;6236968;28;20257;-69
2021/03/16 01:47:57;;;;;;;4.93;4.43;;;3.50;99.90;;;;;;6255557;28;20224;-69
2021/03/16 01:51:03;;;;;;;4.70;4.30;;;3.60;99.90;;;;;;6254603;28;20315;-69
2021/03/16 01:54:08;;;;;;;4.80;4.40;;;3.50;99.90;;;;;;6256449;28;20252;-69
2021/03/16 01:57:10;;;;;;;5.27;4.70;;;3.60;99.90;;;;;;6255849;28;20218;-69
2021/03/16 02:00:36;;;;;;;6.40;5.33;;;3.50;99.90;;;;;;6240902;28;20223;-69
2021/03/16 02:03:56;;;;;;;5.77;5.13;;;3.50;99.90;;;;;;6255831;28;20331;-69
2021/03/16 02:07:26;;;;;;;5.97;5.13;;;3.50;99.90;;;;;;6254912;28;20228;-69
2021/03/16 02:11:26;;;;;;;5.70;5.20;;;3.60;99.90;;;;;;6256153;28;20704;-69
2021/03/16 02:14:54;;;;;;;9.57;5.37;;;3.60;99.90;;;;;;6255093;28;20224;-69
2021/03/16 02:18:23;;;;;;;5.43;4.90;;;3.70;99.90;;;;;;6240793;28;20235;-69
2021/03/16 02:21:45;;;;;;;6.13;4.97;;;3.80;99.90;;;;;;6255009;28;20230;-69
2021/03/16 02:25:50;;;;;;;5.50;4.60;;;3.80;99.90;;;;;;6255586;28;20232;-69
2021/03/16 02:29:28;;;;;;;7.17;5.53;;;3.80;99.90;;;;;;6245745;28;20232;-69
2021/03/16 02:32:50;;;;;;;5.67;5.10;;;3.80;99.90;;;;;;6240871;28;20228;-69
2021/03/16 02:36:13;;;;;;;5.80;5.20;;;3.80;99.90;;;;;;6280927;28;20224;-69
2021/03/16 02:39:34;;;;;;;6.40;4.83;;;3.80;99.90;;;;;;6255211;28;20701;-69
2021/03/16 02:42:55;;;;;;;5.70;4.80;;;3.80;99.90;;;;;;6255704;28;20232;-69
2021/03/16 02:46:17;;;;;;;6.27;4.90;;;3.80;99.90;;;;;;6255406;28;20722;-69
2021/03/16 02:49:39;;;;;;;5.40;4.90;;;3.80;99.90;;;;;;6260314;28;20713;-69
2021/03/16 02:53:00;;;;;;;5.27;4.77;;;3.80;99.90;;;;;;6259263;28;20231;-69
2021/03/16 02:56:21;;;;;;;4.63;4.23;;;3.80;99.90;;;;;;6259897;28;20227;-69
2021/03/16 02:59:42;;;;;;;6.23;4.33;;;3.80;99.90;;;;;;6243918;28;20603;-69
2021/03/16 03:03:05;;;;;;;7.27;5.13;;;3.90;99.90;;;;;;6259873;28;20713;-69
2021/03/16 03:06:26;;;;;;;6.00;5.40;;;3.90;99.90;;;;;;6233467;28;20230;-69
2021/03/16 03:09:46;;;;;;;6.10;5.20;;;3.90;99.90;;;;;;6218813;28;20717;-69
2021/03/16 03:13:07;;;;;;;6.93;5.43;;;3.90;99.90;;;;;;6220959;28;20232;-69
2021/03/16 03:16:28;;;;;;;6.33;5.73;;;4.00;99.90;;;;;;6234179;28;20611;-69
2021/03/16 03:19:48;;;;;;;6.00;4.97;;;4.00;99.90;;;;;;6232876;28;20235;-69
2021/03/16 03:23:16;;;;;;;5.70;4.83;;;4.00;99.90;;;;;;6234726;28;20693;-69
2021/03/16 03:26:45;;;;;;;6.40;5.37;;;4.00;99.90;;;;;;6233257;28;20236;-69
2021/03/16 03:30:08;;;;;;;7.50;5.30;;;3.90;99.90;;;;;;6233913;28;20709;-69
2021/03/16 03:33:31;;;;;;;5.93;5.10;;;4.00;99.90;;;;;;6236697;28;20224;-69
2021/03/16 03:36:59;;;;;;;6.77;4.87;;;4.00;99.90;;;;;;6244736;28;20236;-66
2021/03/16 03:40:20;;;;;;;5.43;4.93;;;4.00;99.90;;;;;;6259085;28;20235;-66
2021/03/16 03:43:42;;;;;;;5.50;5.00;;;4.00;99.90;;;;;;6242641;28;20260;-66
2021/03/16 03:47:04;;;;;;;6.60;5.80;;;4.00;99.90;;;;;;6259456;28;20718;-65
2021/03/16 03:50:25;;;;;;;6.40;5.80;;;4.00;99.90;;;;;;6258660;28;20330;-65
2021/03/16 03:53:47;;;;;;;5.20;4.70;;;4.00;99.90;;;;;;6258061;28;20322;-65
2021/03/16 03:57:09;;;;;;;5.23;4.73;;;4.00;99.90;;;;;;6242685;28;20737;-65
2021/03/16 04:00:32;;;;;;;5.60;4.70;;;4.00;99.90;;;;;;6257807;28;20685;-65
2021/03/16 04:03:52;;;;;;;6.47;4.80;;;3.90;99.90;;;;;;6263678;28;20225;-65
2021/03/16 04:07:14;;;;;;;5.83;4.50;;;4.00;99.90;;;;;;6267323;28;20230;-64
2021/03/16 04:10:38;;;;;;;3.77;3.40;;;3.90;99.90;;;;;;6285018;28;20231;-65
2021/03/16 04:13:59;;;;;;;4.30;3.90;;;3.90;99.90;;;;;;6282270;28;20953;-65
2021/03/16 04:17:20;;;;;;;4.73;4.30;;;3.90;99.90;;;;;;6283242;28;20226;-65
2021/03/16 04:20:43;;;;;;;7.00;4.70;;;3.90;99.90;;;;;;6285210;28;20222;-65
2021/03/16 04:24:04;;;;;;;5.93;5.13;;;3.90;99.90;;;;;;6240509;28;20243;-65
2021/03/16 04:27:25;;;;;;;4.87;4.47;;;3.80;99.90;;;;;;6256679;28;20585;-65
2021/03/16 04:30:45;;;;;;;5.37;4.40;;;3.80;99.90;;;;;;6232307;28;20232;-65
2021/03/16 04:34:06;;;;;;;6.83;5.07;;;3.70;99.90;;;;;;6238981;28;20239;-65
2021/03/16 04:37:26;;;;;;;6.67;4.77;;;3.60;99.90;;;;;;6245919;28;20697;-65
2021/03/16 04:40:46;;;;;;;5.90;5.40;;;3.50;99.90;;;;;;6232800;28;20229;-65
2021/03/16 04:44:06;;;;;;;7.23;5.83;;;3.50;99.90;;;;;;6232616;28;20286;-65
2021/03/16 04:47:27;;;;;;;6.93;5.47;;;3.40;99.90;;;;;;6233462;28;20232;-65
2021/03/16 04:50:47;;;;;;;9.57;5.50;;;3.40;99.90;;;;;;6232311;28;20228;-65
2021/03/16 04:54:07;;;;;;;8.00;5.20;;;3.40;99.90;;;;;;6231011;28;20282;-65
2021/03/16 04:57:27;;;;;;;6.70;5.60;;;3.40;99.90;;;;;;6231770;28;20224;-65
2021/03/16 05:00:47;;;;;;;6.33;5.63;;;3.30;99.90;;;;;;6231204;28;20236;-65
2021/03/16 05:04:08;;;;;;;6.20;4.97;;;3.40;99.90;;;;;;6232731;28;20228;-65
2021/03/16 05:07:28;;;;;;;6.13;5.53;;;3.30;99.90;;;;;;6232208;28;20705;-65
2021/03/16 05:10:48;;;;;;;5.70;4.93;;;3.40;99.90;;;;;;6231335;28;20693;-65
2021/03/16 05:14:08;;;;;;;6.77;5.47;;;3.40;99.90;;;;;;6231729;28;20224;-65
2021/03/16 05:17:28;;;;;;;6.73;5.33;;;3.40;99.90;;;;;;6231169;28;20232;-65
2021/03/16 05:20:49;;;;;;;5.30;4.80;;;3.40;99.90;;;;;;6232543;28;20235;-65
2021/03/16 05:24:09;;;;;;;6.00;5.40;;;3.40;99.90;;;;;;6231560;28;20216;-65
2021/03/16 05:27:30;;;;;;;5.73;5.23;;;3.40;99.90;;;;;;6232896;28;20252;-65
2021/03/16 05:30:50;;;;;;;5.87;5.27;;;3.40;99.90;;;;;;6247297;28;20269;-65
2021/03/16 05:34:11;;;;;;;5.30;4.70;;;3.40;99.90;;;;;;6240459;28;20227;-65
2021/03/16 05:37:32;;;;;;;5.70;4.80;;;3.40;99.90;;;;;;6256304;28;20231;-65
2021/03/16 05:40:52;;;;;;;5.23;4.57;;;3.40;99.90;;;;;;6255738;28;20704;-65
2021/03/16 05:44:12;;;;;;;8.33;4.83;;;3.50;99.90;;;;;;6256588;28;20231;-65
2021/03/16 05:47:33;;;;;;;5.70;4.87;;;3.50;99.90;;;;;;6256268;28;20231;-65
2021/03/16 05:50:54;;;;;;;5.20;4.70;;;3.50;99.90;;;;;;6240582;28;20326;-65
2021/03/16 05:54:16;;;;;;;4.60;4.20;;;3.50;99.90;;;;;;6255176;28;20598;-65
2021/03/16 05:57:36;;;;;;;4.43;4.03;;;3.50;99.90;;;;;;6255914;28;20227;-65
2021/03/16 06:00:56;;;;;;;4.83;4.37;;;3.50;99.90;;;;;;6255212;28;20231;-65
2021/03/16 06:04:16;;;;;;;5.10;4.00;;;3.50;99.90;;;;;;6263829;28;20226;-65
2021/03/16 06:07:37;;;;;;;5.73;4.23;;;3.60;99.90;;;;;;6265080;28;20696;-65
2021/03/16 06:10:58;;;;;;;5.10;4.40;;;3.70;99.90;;;;;;6280103;28;20242;-65
2021/03/16 06:14:28;;;;;;;5.17;4.10;;;3.70;99.90;;;;;;6280826;28;20219;-65
2021/03/16 06:17:52;;;;;;;5.73;4.30;;;3.70;99.90;;;;;;6264144;28;20230;-64
2021/03/16 06:21:21;;;;;;;6.60;4.63;;;3.70;99.90;;;;;;6278956;28;20218;-65
2021/03/16 06:24:48;;;;;;;4.87;4.17;;;3.80;99.90;;;;;;6289206;28;20695;-65
2021/03/16 06:28:13;;;;;;;5.20;4.70;;;3.80;99.90;;;;;;6268734;28;20640;-64
2021/03/16 06:31:34;;;;;;;6.20;5.23;;;3.90;99.90;;;;;;6258447;28;20231;-65
2021/03/16 06:35:00;;;;;;;4.93;3.90;;;3.90;99.90;;;;;;6258735;28;20234;-65
2021/03/16 06:38:20;;;;;;;4.50;4.10;;;4.00;99.90;;;;;;6242600;28;20323;-64
2021/03/16 06:41:41;;;;;;;6.17;4.20;;;4.00;99.90;;;;;;6234119;28;20224;-64
2021/03/16 06:45:07;;;;;;;4.60;4.20;;;4.00;99.90;;;;;;6235084;28;20224;-64
2021/03/16 06:48:37;;;;;;;3.40;3.10;;;4.10;99.90;;;;;;6235117;28;20247;-64
2021/03/16 06:51:57;;;;;;;3.60;3.30;;;4.10;99.90;;;;;;6234652;28;20227;-64
2021/03/16 06:55:18;;;;;;;4.00;3.47;;;4.20;99.90;;;;;;6234526;28;20318;-65
2021/03/16 06:58:38;;;;;;;3.33;3.03;;;4.20;99.90;;;;;;6235303;28;20237;-65
2021/03/16 07:02:09;;;;;;;4.37;3.03;;;4.20;99.90;;;;;;6249186;28;20232;-65
2021/03/16 07:05:30;;;;;;;4.07;3.20;;;4.20;99.90;;;;;;6234351;28;20235;-65
2021/03/16 07:08:51;;;;;;;3.13;2.83;;;4.30;99.90;;;;;;6234590;28;20714;-65
2021/03/16 07:12:12;;;;;;;3.97;2.83;;;4.40;99.90;;;;;;6234832;28;20587;-65
2021/03/16 07:15:33;;;;;;;4.33;2.70;;;4.50;99.90;;;;;;6235257;28;20297;-65
2021/03/16 07:18:54;;;;;;;4.00;2.40;;;4.50;99.90;;;;;;6234914;28;20330;-65
2021/03/16 07:22:21;;;;;;;4.70;2.70;;;4.50;99.90;;;;;;6234629;28;20329;-65
2021/03/16 07:25:43;;;;;;;3.03;2.40;;;4.60;99.90;;;;;;6233897;28;20236;-65
2021/03/16 07:29:04;;;;;;;2.40;2.20;;;4.60;99.90;;;;;;6234945;28;20229;-65
2021/03/16 07:32:26;;;;;;;2.53;2.07;;;4.60;99.90;;;;;;6244142;28;20223;-64
2021/03/16 07:35:48;;;;;;;2.50;2.30;;;4.60;99.90;;;;;;6244118;28;20232;-65
2021/03/16 07:39:10;;;;;;;2.50;2.13;;;4.70;99.90;;;;;;6259162;28;20607;-64
2021/03/16 07:42:30;;;;;;;3.10;2.10;;;4.80;99.90;;;;;;6257122;28;20228;-64
2021/03/16 07:45:51;;;;;;;2.40;2.20;;;4.80;99.90;;;;;;6258119;28;20327;-64
2021/03/16 07:49:14;;;;;;;2.37;2.17;;;4.80;99.90;;;;;;6258120;28;20232;-65
2021/03/16 07:52:45;;;;;;;3.77;2.60;;;4.70;99.90;;;;;;6258867;28;20713;-64
2021/03/16 07:56:08;;;;;;;2.37;2.17;;;4.70;99.90;;;;;;6257126;28;20710;-64
2021/03/16 07:59:36;;;;;;;2.10;1.83;;;4.80;99.90;;;;;;6257348;28;20257;-65
2021/03/16 08:02:58;;;;;;;2.40;2.20;;;4.80;99.90;;;;;;6243144;28;20258;-65
2021/03/16 08:06:29;;;;;;;3.30;2.10;;;4.80;99.90;;;;;;6233094;28;20208;-65
2021/03/16 08:09:52;;;;;;;2.53;2.17;;;4.80;99.90;;;;;;6233677;28;20237;-65
2021/03/16 08:13:18;;;;;;;2.43;2.10;;;4.70;99.90;;;;;;6232034;28;20316;-65
2021/03/16 08:16:43;;;;;;;2.23;2.03;;;4.50;99.90;;;;;;6233472;28;20232;-65
2021/03/16 08:20:05;;;;;;;2.63;1.90;;;4.30;99.90;;;;;;6232517;28;20323;-65
2021/03/16 08:23:31;;;;;;;2.57;1.80;;;4.20;99.90;;;;;;6232845;28;20699;-65
2021/03/16 08:26:53;;;;;;;1.47;1.37;;;4.20;99.90;;;;;;6231369;28;20318;-65
2021/03/16 08:30:14;;;;;;;1.93;1.27;;;4.20;99.90;;;;;;6232264;28;20237;-65
2021/03/16 08:33:34;;;;;;;2.87;1.53;;;4.30;99.90;;;;;;6234886;28;20220;-65
2021/03/16 08:36:55;;;;;;;1.60;0.90;;;4.30;99.90;;;;;;6255712;28;20316;-65
2021/03/16 08:40:23;;;;;;;1.30;1.20;;;4.40;99.90;;;;;;6256151;28;20228;-65
2021/03/16 08:43:49;;;;;;;2.07;1.20;;;4.40;99.90;;;;;;6257230;28;20227;-65
2021/03/16 08:47:21;;;;;;;1.63;1.43;;;4.50;99.90;;;;;;6256837;28;20322;-65
2021/03/16 08:50:42;;;;;;;1.60;1.50;;;4.60;99.90;;;;;;6257267;28;20599;-65
2021/03/16 08:54:02;;;;;;;2.77;1.90;;;4.50;99.90;;;;;;6256837;28;20239;-65
2021/03/16 08:57:31;;;;;;;2.03;1.67;;;4.60;99.90;;;;;;6256782;28;20312;-65
2021/03/16 09:00:51;;;;;;;1.90;1.60;;;4.80;99.90;;;;;;6255473;28;20232;-65
2021/03/16 09:04:12;;;;;;;3.17;2.07;;;5.00;99.90;;;;;;6226857;28;20605;-65
2021/03/16 09:07:36;;;;;;;1.93;1.70;;;5.30;99.90;;;;;;6256210;28;20232;-65
2021/03/16 09:10:56;;;;;;;2.93;1.93;;;5.80;99.90;;;;;;6255911;28;20234;-65
2021/03/16 09:14:18;;;;;;;2.93;2.30;;;6.00;99.90;;;;;;6240948;28;20233;-65
2021/03/16 09:17:41;;;;;;;2.40;1.90;;;6.10;99.90;;;;;;6257863;28;20317;-65
2021/03/16 09:21:06;;;;;;;4.13;2.07;;;6.20;99.90;;;;;;6255139;28;20239;-65
2021/03/16 09:24:31;;;;;;;2.30;2.10;;;6.10;99.90;;;;;;6255488;28;20596;-65
2021/03/16 09:27:51;;;;;;;3.57;2.20;;;6.10;99.90;;;;;;6255629;28;20232;-65
2021/03/16 09:31:12;;;;;;;2.13;1.80;;;6.20;99.90;;;;;;6257449;28;20599;-65
2021/03/16 09:34:36;;;;;;;2.40;1.67;;;6.50;99.90;;;;;;6255750;28;20235;-65
2021/03/16 09:37:57;;;;;;;3.73;1.70;;;6.80;99.90;;;;;;6240871;28;20234;-65
2021/03/16 09:41:17;;;;;;;2.90;1.53;;;7.10;99.90;;;;;;6239397;28;20324;-65
2021/03/16 09:44:37;;;;;;;1.47;1.37;;;7.10;99.90;;;;;;6237415;28;20695;-65
2021/03/16 09:47:40;;;;;;;3.47;1.60;;;6.90;99.90;;;;;;6256666;28;20234;-65
2021/03/16 09:50:44;;;;;;;2.50;1.67;;;7.00;99.90;;;;;;6255931;28;20234;-65
2021/03/16 09:53:53;;;;;;;3.20;1.50;;;7.00;99.90;;;;;;6236906;28;20753;-65
2021/03/16 09:56:55;;;;;;;1.97;1.70;;;7.10;99.90;;;;;;6238702;28;20224;-65
2021/03/16 09:59:57;;;;;;;2.77;1.83;;;7.20;99.90;;;;;;6255934;28;20377;-65
2021/03/16 10:03:16;;;;;;;2.07;1.70;;;7.20;99.90;;;;;;6224754;28;20751;-65
2021/03/16 10:06:30;;;;;;;3.53;1.47;;;7.10;99.90;;;;;;6262853;28;20206;-65
2021/03/16 10:09:40;;;;;;;1.63;1.53;;;7.00;99.90;;;;;;6264235;28;20695;-65
2021/03/16 10:12:57;;;;;;;2.17;1.60;;;7.10;99.90;;;;;;6280169;28;20241;-65
2021/03/16 10:16:07;;;;;;;2.30;1.60;;;7.30;99.90;;;;;;6279784;28;20691;-65
2021/03/16 10:19:20;;;;;;;2.03;1.70;;;7.40;99.90;;;;;;6279278;28;20245;-65
2021/03/16 10:22:34;;;;;;;2.47;1.53;;;7.30;99.90;;;;;;6262000;28;20253;-65
2021/03/16 10:25:37;;;;;;;1.80;1.37;;;7.20;99.90;;;;;;6262823;28;20241;-65
2021/03/16 10:28:43;;;;;;;1.67;1.30;;;7.10;99.90;;;;;;6280007;28;20235;-65
2021/03/16 10:31:45;;;;;;;1.57;1.23;;;7.00;99.90;;;;;;6284793;28;20234;-65
2021/03/16 10:34:48;;;;;;;1.60;1.47;;;6.80;99.90;;;;;;6264833;28;20286;-65
2021/03/16 10:37:50;;;;;;;1.13;1.03;;;6.80;99.90;;;;;;6272143;28;20708;-65
2021/03/16 10:40:52;;;;;;;2.43;1.30;;;6.80;99.90;;;;;;6260674;28;20253;-65
2021/03/16 10:43:54;;;;;;;2.60;1.13;;;6.70;99.90;;;;;;6260073;28;20234;-65
2021/03/16 10:46:55;;;;;;;1.63;1.40;;;6.70;99.90;;;;;;6255364;28;20238;-65
2021/03/16 10:49:58;;;;;;;1.47;1.10;;;6.70;99.90;;;;;;6256247;28;20226;-65
2021/03/16 10:53:00;;;;;;;1.37;1.20;;;6.60;99.90;;;;;;6259076;28;20242;-64
2021/03/16 10:56:05;;;;;;;1.73;1.50;;;6.60;99.90;;;;;;6255014;28;20219;-64
2021/03/16 10:59:07;;;;;;;1.40;1.10;;;6.70;99.90;;;;;;6254032;28;20230;-65
2021/03/16 11:02:09;;;;;;;1.60;1.50;;;6.70;99.90;;;;;;6255605;28;20640;-65
2021/03/16 11:05:12;;;;;;;1.37;1.27;;;6.60;99.90;;;;;;6237731;28;20593;-65
2021/03/16 11:08:13;;;;;;;1.40;1.30;;;6.60;99.90;;;;;;6254874;28;20707;-65
2021/03/16 11:11:15;;;;;;;2.63;1.40;;;6.50;99.90;;;;;;6259107;28;20235;-64
2021/03/16 11:14:17;;;;;;;1.20;1.10;;;6.60;99.90;;;;;;6258686;28;20593;-65
2021/03/16 11:17:19;;;;;;;1.27;1.17;;;6.60;99.90;;;;;;6259174;28;20352;-65
2021/03/16 11:20:21;;;;;;;1.30;1.20;;;6.70;99.90;;;;;;6240807;28;20236;-65
2021/03/16 11:23:22;;;;;;;1.80;1.13;;;6.90;99.90;;;;;;6241045;28;20735;-65
2021/03/16 11:26:25;;;;;;;1.67;1.20;;;7.10;99.90;;;;;;6240896;28;20663;-64
2021/03/16 11:29:27;;;;;;;1.20;1.10;;;7.20;99.90;;;;;;6258922;28;20227;-64
2021/03/16 11:32:29;;;;;;;3.03;1.13;;;7.20;99.90;;;;;;6259662;28;20233;-64
2021/03/16 11:35:49;;;;;;;0.90;0.90;;;7.10;99.90;;;;;;6259850;28;20273;-64
2021/03/16 11:39:10;;;;;;;1.27;1.17;;;6.90;99.90;;;;;;6258145;28;20264;-64
2021/03/16 11:42:32;;;;;;;2.30;1.10;;;6.80;99.90;;;;;;6258087;28;20224;-64
2021/03/16 11:45:52;;;;;;;1.57;1.00;;;6.70;99.90;;;;;;6259018;28;20322;-64
2021/03/16 11:49:13;;;;;;;1.30;1.07;;;6.60;99.90;;;;;;6244292;28;20235;-64
2021/03/16 11:52:34;;;;;;;1.53;1.10;;;6.50;99.90;;;;;;6261621;28;20227;-64
2021/03/16 11:55:54;;;;;;;1.00;0.87;;;6.50;99.90;;;;;;6258805;28;20270;-64
2021/03/16 11:59:16;;;;;;;2.17;1.53;;;6.40;99.90;;;;;;6258136;28;20235;-64
2021/03/16 12:02:36;;;;;;;2.80;1.80;;;6.40;99.90;;;;;;6242403;28;20235;-64
2021/03/16 12:05:57;;;;;;;2.37;1.57;;;6.40;99.90;;;;;;6280522;28;20231;-64
2021/03/16 12:09:17;;;;;;;2.67;2.23;;;6.40;99.90;;;;;;6282651;28;20202;-64
2021/03/16 12:12:38;;;;;;;3.00;1.87;;;6.50;99.90;;;;;;6283350;28;20593;-64
2021/03/16 12:15:58;;;;;;;2.53;2.03;;;6.50;99.90;;;;;;6282284;28;20308;-64
2021/03/16 12:19:21;;;;;;;3.20;2.33;;;6.60;99.90;;;;;;6267605;28;20246;-65
2021/03/16 12:22:43;;;;;;;2.07;1.80;;;6.60;99.90;;;;;;6265979;28;20332;-64
2021/03/16 12:26:04;;;;;;;3.37;1.97;;;6.60;99.90;;;;;;6282079;28;20639;-64
2021/03/16 12:29:25;;;;;;;2.17;1.70;;;6.50;99.90;;;;;;6267554;28;20233;-64
2021/03/16 12:32:46;;;;;;;3.00;1.90;;;6.40;99.90;;;;;;6282758;28;20313;-64
2021/03/16 12:36:08;;;;;;;1.60;1.50;;;6.30;99.90;;;;;;6280722;28;20226;-64
2021/03/16 12:39:29;;;;;;;2.47;1.70;;;6.30;99.90;;;;;;6233358;28;20607;-64
2021/03/16 12:42:49;;;;;;;3.03;1.50;;;6.50;99.90;;;;;;6217495;28;20235;-64
2021/03/16 12:46:09;;;;;;;2.30;1.53;;;6.40;99.60;;;;;;6232413;28;20271;-64
2021/03/16 12:49:30;;;;;;;2.57;1.90;;;6.40;99.90;;;;;;6232412;28;20254;-64
2021/03/16 12:52:51;;;;;;;3.43;1.60;;;6.50;99.90;;;;;;6233011;28;20239;-64
2021/03/16 12:56:13;;;;;;;3.47;1.50;;;6.50;99.90;;;;;;6236760;28;20750;-64
2021/03/16 12:59:33;;;;;;;2.20;1.40;;;6.60;99.50;;;;;;6256714;28;20235;-64
2021/03/16 13:02:53;;;;;;;3.43;2.10;;;6.70;99.80;;;;;;6257236;28;20235;-64
2021/03/16 13:06:14;;;;;;;3.60;2.00;;;6.90;99.30;;;;;;6231748;28;20296;-64
2021/03/16 13:09:34;;;;;;;1.67;1.27;;;7.10;98.90;;;;;;6231642;28;20680;-64
2021/03/16 13:12:54;;;;;;;2.83;1.93;;;7.20;96.90;;;;;;6230807;28;20693;-64
2021/03/16 13:16:15;;;;;;;2.30;1.70;;;7.30;97.50;;;;;;6234363;28;20232;-65
2021/03/16 13:19:35;;;;;;;3.83;1.63;;;7.30;97.30;;;;;;6230344;28;20236;-65
2021/03/16 13:22:55;;;;;;;2.63;1.63;;;7.30;97.30;;;;;;6232093;28;20232;-64
2021/03/16 13:26:16;;;;;;;2.50;1.50;;;7.10;96.40;;;;;;6231386;28;20303;-64
2021/03/16 13:29:36;;;;;;;2.87;1.40;;;7.00;96.80;;;;;;6231289;28;20319;-64
2021/03/16 13:32:58;;;;;;;2.27;1.60;;;7.00;96.60;;;;;;6215373;28;20709;-64
2021/03/16 13:36:28;;;;;;;3.20;1.93;;;6.90;95.40;;;;;;6232928;28;20235;-64
2021/03/16 13:39:49;;;;;;;4.00;1.67;;;6.70;95.80;;;;;;6240961;28;20702;-65
2021/03/16 13:43:09;;;;;;;3.33;1.37;;;6.50;97.20;;;;;;6256419;28;20227;-65
2021/03/16 13:46:30;;;;;;;2.60;1.50;;;6.50;98.40;;;;;;6256665;28;20223;-65
2021/03/16 13:49:51;;;;;;;1.47;1.37;;;6.40;99.20;;;;;;6256211;28;20239;-65
2021/03/16 13:53:11;;;;;;;1.30;1.20;;;6.30;98.80;;;;;;6255909;28;20235;-65
2021/03/16 13:56:32;;;;;;;1.43;1.30;;;6.30;99.20;;;;;;6256628;28;20744;-65
2021/03/16 13:59:52;;;;;;;1.20;1.10;;;6.30;98.90;;;;;;6255325;28;20638;-64
2021/03/16 14:03:13;;;;;;;1.23;1.10;;;6.60;98.10;;;;;;6256249;28;20220;-64
2021/03/16 14:06:42;;;;;;;2.73;1.33;;;7.40;96.80;;;;;;6279698;28;20230;-64
2021/03/16 14:10:06;;;;;;;1.60;1.30;;;8.40;91.60;;;;;;6280741;28;20273;-64
2021/03/16 14:13:27;;;;;;;1.53;1.30;;;8.40;87.30;;;;;;6280450;28;20560;-64
2021/03/16 14:17:03;;;;;;;2.07;1.40;;;8.00;89.00;;;;;;6281153;28;20235;-64
2021/03/16 14:20:24;;;;;;;1.47;1.20;;;7.80;90.10;;;;;;6279971;28;20231;-64
2021/03/16 14:23:46;;;;;;;2.33;1.70;;;7.50;91.30;;;;;;6279942;28;20218;-64
2021/03/16 14:27:07;;;;;;;1.40;1.20;;;7.20;91.50;;;;;;6265304;28;20226;-64
2021/03/16 14:30:27;;;;;;;3.10;1.60;;;7.10;92.50;;;;;;6266828;28;20235;-64
2021/03/16 14:33:48;;;;;;;2.83;1.57;;;7.30;92.20;;;;;;6254147;28;20223;-64
2021/03/16 14:37:21;;;;;;;1.83;1.50;;;7.40;91.70;;;;;;6246607;28;20235;-64
2021/03/16 14:40:41;;;;;;;2.07;1.30;;;7.30;91.30;;;;;;6229901;28;20772;-64
2021/03/16 14:44:03;;;;;;;2.57;1.70;;;7.30;90.80;;;;;;6234225;28;20232;-64
2021/03/16 14:47:24;;;;;;;1.67;1.13;;;7.30;91.80;;;;;;6237076;28;20243;-64
2021/03/16 14:50:45;;;;;;;2.27;1.10;;;7.40;90.60;;;;;;6234677;28;20309;-64
2021/03/16 14:54:05;;;;;;;1.77;1.03;;;7.30;85.30;;;;;;6235502;28;20228;-64
2021/03/16 14:57:26;;;;;;;1.57;1.13;;;7.30;82.30;;;;;;6236038;28;20232;-64
2021/03/16 15:00:47;;;;;;;1.70;1.60;;;7.20;83.80;;;;;;6235095;28;20235;-65
2021/03/16 15:04:08;;;;;;;2.03;1.10;;;7.10;82.20;;;;;;6234891;28;20228;-65
2021/03/16 15:07:43;;;;;;;2.33;1.37;;;6.90;81.40;;;;;;6235184;28;20232;-65
2021/03/16 15:11:05;;;;;;;2.80;1.30;;;6.80;81.70;;;;;;6235242;28;20235;-65
2021/03/16 15:14:25;;;;;;;4.27;1.40;;;6.70;86.60;;;;;;6233553;28;20227;-65
2021/03/16 15:17:45;;;;;;;1.40;1.23;;;6.50;87.90;;;;;;6234602;28;20705;-65
2021/03/16 15:21:17;;;;;;;1.67;1.20;;;6.40;90.40;;;;;;6234318;28;20649;-65
2021/03/16 15:24:38;;;;;;;2.20;1.47;;;6.30;92.30;;;;;;6235137;28;20678;-65
2021/03/16 15:27:59;;;;;;;2.13;1.40;;;6.10;93.10;;;;;;6235290;28;20235;-65
2021/03/16 15:31:19;;;;;;;2.33;1.40;;;6.00;93.90;;;;;;6255088;28;20242;-65
2021/03/16 15:34:41;;;;;;;2.23;1.53;;;5.90;93.50;;;;;;6258367;28;20337;-65
2021/03/16 15:38:06;;;;;;;3.10;1.40;;;5.90;93.50;;;;;;6258507;28;20228;-65
2021/03/16 15:41:26;;;;;;;4.43;1.57;;;5.70;93.40;;;;;;6243295;28;20255;-65
2021/03/16 15:44:46;;;;;;;2.77;1.83;;;5.60;94.60;;;;;;6258842;28;20225;-65
2021/03/16 15:48:07;;;;;;;4.93;2.00;;;5.50;96.00;;;;;;6257171;28;20220;-65
2021/03/16 15:51:28;;;;;;;4.40;1.60;;;5.30;97.20;;;;;;6258517;28;20230;-65
2021/03/16 15:54:50;;;;;;;3.17;2.17;;;5.20;99.90;;;;;;6256945;28;20237;-65
2021/03/16 15:58:10;;;;;;;4.17;2.20;;;4.90;99.90;;;;;;6243069;28;20238;-65
2021/03/16 16:01:31;;;;;;;2.50;2.30;;;4.70;99.90;;;;;;6258014;28;20233;-64
2021/03/16 16:04:51;;;;;;;2.77;1.77;;;4.50;99.90;;;;;;6271491;28;20714;-64
2021/03/16 16:08:13;;;;;;;2.20;2.00;;;4.50;99.90;;;;;;6282676;28;20230;-64
2021/03/16 16:11:37;;;;;;;5.20;1.90;;;4.50;99.90;;;;;;6283123;28;20609;-64
2021/03/16 16:14:58;;;;;;;3.17;2.20;;;4.40;99.90;;;;;;6282049;28;20319;-64
2021/03/16 16:18:19;;;;;;;3.63;1.60;;;4.40;99.90;;;;;;6281880;28;20224;-64
2021/03/16 16:21:41;;;;;;;3.70;2.00;;;4.40;99.90;;;;;;6282852;28;20227;-64
2021/03/16 16:25:03;;;;;;;2.70;1.83;;;4.30;99.90;;;;;;6281874;28;20319;-64
2021/03/16 16:28:24;;;;;;;2.60;1.53;;;4.30;99.90;;;;;;6282218;28;20239;-64
2021/03/16 16:31:44;;;;;;;2.77;1.93;;;4.30;99.90;;;;;;6281731;28;20228;-64
2021/03/16 16:35:07;;;;;;;3.47;2.37;;;4.30;99.90;;;;;;6285553;28;20228;-64
2021/03/16 16:38:27;;;;;;;2.57;2.00;;;4.20;99.90;;;;;;6263058;28;20224;-64
2021/03/16 16:41:49;;;;;;;3.33;2.53;;;4.20;99.90;;;;;;6257285;28;20241;-63
2021/03/16 16:45:11;;;;;;;3.67;2.27;;;4.10;99.90;;;;;;6256995;28;20311;-64
2021/03/16 16:48:31;;;;;;;3.37;2.13;;;4.10;99.90;;;;;;6242086;28;20235;-64
2021/03/16 16:51:52;;;;;;;2.90;2.00;;;4.00;99.90;;;;;;6242570;28;20241;-64
2021/03/16 16:55:13;;;;;;;3.40;2.17;;;4.00;99.90;;;;;;6257335;28;20240;-64
2021/03/16 16:58:34;;;;;;;2.27;1.83;;;4.10;99.90;;;;;;6257093;28;20640;-64
2021/03/16 17:01:54;;;;;;;2.27;1.70;;;4.10;99.90;;;;;;6256825;28;20227;-64
2021/03/16 17:05:16;;;;;;;2.13;1.83;;;4.10;99.90;;;;;;6256645;28;20228;-64
2021/03/16 17:08:37;;;;;;;2.90;1.80;;;4.10;99.90;;;;;;6257223;28;20236;-64
2021/03/16 17:11:58;;;;;;;2.60;1.77;;;4.10;99.90;;;;;;6256473;28;20233;-64
2021/03/16 17:15:18;;;;;;;3.60;2.00;;;4.10;99.90;;;;;;6255933;28;20304;-64
2021/03/16 17:18:39;;;;;;;3.50;1.97;;;4.10;99.90;;;;;;6255565;28;20228;-65
2021/03/16 17:22:00;;;;;;;2.83;1.83;;;4.10;99.90;;;;;;6256351;28;20327;-65
2021/03/16 17:25:20;;;;;;;3.47;2.10;;;4.20;99.90;;;;;;6256423;28;20258;-65